Time;durP1;ratioP1;P1;durP2;ratioP2;P2;SDS_P1;SDS_P2;PMS_P1;PMS_P2;Temp;Humidity;BMP_temperature;BMP_pressure;BME280_temperature;BME280_humidity;BME280_pressure;Samples;Min_cycle;Max_cycle;Signal;HPM_P1;HPM_P2
2022/01/01 00:02:20;;;;;;;120.88;60.20;;;;;;;;;;5047674;28;42594;-84
2022/01/01 00:05:03;;;;;;;117.53;54.95;;;;;;;;;;5048689;28;44977;-84
2022/01/01 00:07:29;;;;;;;113.50;53.50;;;;;;;;;;5048578;28;43707;-84
2022/01/01 00:09:56;;;;;;;124.75;54.28;;;;;;;;;;5047565;28;44842;-84
2022/01/01 00:12:27;;;;;;;109.78;52.55;;;;;;;;;;5047929;28;44976;-84
2022/01/01 00:14:54;;;;;;;110.18;55.05;;;;;;;;;;5048852;28;43751;-84
2022/01/01 00:17:21;;;;;;;120.00;55.80;;;;;;;;;;5047397;28;44654;-84
2022/01/01 00:19:47;;;;;;;117.03;56.08;;;;;;;;;;5048435;28;43137;-84
2022/01/01 00:22:14;;;;;;;121.53;57.97;;;;;;;;;;5047520;28;44838;-85
2022/01/01 00:24:41;;;;;;;129.80;57.83;;;;;;;;;;5046910;28;42525;-85
2022/01/01 00:27:07;;;;;;;109.65;56.67;;;;;;;;;;5047846;28;44082;-85
2022/01/01 00:29:34;;;;;;;120.15;55.83;;;;;;;;;;5048063;28;42719;-84
2022/01/01 00:32:01;;;;;;;109.57;51.90;;;;;;;;;;5047682;28;42880;-84
2022/01/01 00:34:36;;;;;;;110.70;51.22;;;;;;;;;;5048598;28;44883;-85
2022/01/01 00:37:03;;;;;;;104.43;48.53;;;;;;;;;;5046939;28;45080;-84
2022/01/01 00:39:30;;;;;;;117.30;51.72;;;;;;;;;;5048880;28;43933;-84
2022/01/01 00:41:56;;;;;;;108.53;52.60;;;;;;;;;;5047833;28;44750;-84
2022/01/01 00:44:24;;;;;;;115.50;54.63;;;;;;;;;;5047497;28;44660;-84
2022/01/01 00:46:51;;;;;;;108.47;56.33;;;;;;;;;;5047172;28;42983;-85
2022/01/01 00:49:18;;;;;;;110.95;51.97;;;;;;;;;;5048660;28;45751;-84
2022/01/01 00:51:45;;;;;;;110.03;53.03;;;;;;;;;;5046417;28;43538;-84
2022/01/01 00:54:11;;;;;;;102.60;52.38;;;;;;;;;;5050566;28;44385;-84
2022/01/01 00:56:38;;;;;;;109.38;53.55;;;;;;;;;;5051003;28;43760;-84
2022/01/01 00:59:05;;;;;;;114.40;55.45;;;;;;;;;;5050621;28;44059;-84
2022/01/01 01:01:32;;;;;;;109.68;51.83;;;;;;;;;;5051136;28;42890;-86
2022/01/01 01:03:59;;;;;;;106.27;50.57;;;;;;;;;;5051183;28;42948;-85
2022/01/01 01:06:25;;;;;;;104.43;50.88;;;;;;;;;;5050332;28;43136;-85
2022/01/01 01:08:54;;;;;;;97.78;49.22;;;;;;;;;;5050973;28;43027;-85
2022/01/01 01:11:20;;;;;;;;;;;;;;;;;;5049787;28;42639;-85
2022/01/01 01:13:55;;;;;;;97.55;48.95;;;;;;;;;;5048109;28;44070;-84
2022/01/01 01:16:22;;;;;;;113.55;52.05;;;;;;;;;;5045299;28;42688;-84
2022/01/01 01:18:50;;;;;;;116.00;53.72;;;;;;;;;;5043986;28;44018;-84
2022/01/01 01:21:16;;;;;;;120.97;56.45;;;;;;;;;;5049565;28;44013;-84
2022/01/01 01:23:43;;;;;;;120.95;59.67;;;;;;;;;;5050595;28;42901;-85
2022/01/01 01:26:10;;;;;;;117.50;60.70;;;;;;;;;;5048954;28;42899;-84
2022/01/01 01:28:39;;;;;;;115.88;62.50;;;;;;;;;;5049338;28;42721;-85
2022/01/01 01:31:06;;;;;;;128.77;64.65;;;;;;;;;;5051403;28;44975;-84
2022/01/01 01:33:33;;;;;;;106.47;56.85;;;;;;;;;;5051003;28;44889;-85
2022/01/01 01:36:00;;;;;;;113.43;56.28;;;;;;;;;;5050637;28;44778;-84
2022/01/01 01:38:26;;;;;;;100.28;50.05;;;;;;;;;;5051841;28;45386;-84
2022/01/01 01:40:53;;;;;;;85.53;42.55;;;;;;;;;;5050962;28;44888;-84
2022/01/01 01:43:21;;;;;;;78.10;36.97;;;;;;;;;;5051958;28;44147;-84
2022/01/01 01:45:48;;;;;;;84.20;34.20;;;;;;;;;;5051738;28;43488;-85
2022/01/01 01:48:15;;;;;;;83.82;31.80;;;;;;;;;;5050410;28;44900;-85
2022/01/01 01:50:42;;;;;;;75.72;30.65;;;;;;;;;;5051392;28;45394;-85
2022/01/01 01:53:09;;;;;;;74.20;29.45;;;;;;;;;;5050462;28;42793;-85
2022/01/01 01:55:36;;;;;;;67.50;28.15;;;;;;;;;;5050604;28;42929;-85
2022/01/01 01:58:03;;;;;;;77.65;27.27;;;;;;;;;;5050551;28;45074;-84
2022/01/01 02:03:15;;;;;;;67.05;27.98;;;;;;;;;;5049877;28;45619;-84
2022/01/01 02:05:43;;;;;;;80.05;30.52;;;;;;;;;;5050602;28;42639;-85
2022/01/01 02:08:10;;;;;;;78.43;30.00;;;;;;;;;;5050094;28;43780;-84
2022/01/01 02:10:37;;;;;;;84.97;31.03;;;;;;;;;;5051588;28;42523;-84
2022/01/01 02:13:11;;;;;;;76.15;30.75;;;;;;;;;;5050226;28;44875;-84
2022/01/01 02:16:30;;;;;;;76.93;30.27;;;;;;;;;;5050360;28;42720;-84
2022/01/01 02:18:28;;;;;;;76.20;30.20;;;;;;;;;;5047959;28;44940;-84
2022/01/01 02:20:55;;;;;;;85.93;29.88;;;;;;;;;;5050427;28;44919;-83
2022/01/01 02:23:23;;;;;;;81.20;28.40;;;;;;;;;;5050136;28;43690;-84
2022/01/01 02:25:51;;;;;;;84.72;31.67;;;;;;;;;;5050472;28;45927;-84
2022/01/01 02:28:18;;;;;;;75.00;30.23;;;;;;;;;;5050906;28;44213;-84
2022/01/01 02:30:45;;;;;;;80.70;28.27;;;;;;;;;;5049837;28;42986;-85
2022/01/01 02:33:12;;;;;;;74.68;26.30;;;;;;;;;;5050490;28;44878;-84
2022/01/01 02:35:39;;;;;;;64.93;26.83;;;;;;;;;;5050623;28;42600;-84
2022/01/01 02:38:06;;;;;;;66.68;25.00;;;;;;;;;;5049089;28;42645;-84
2022/01/01 02:40:33;;;;;;;70.00;26.50;;;;;;;;;;5051113;28;43034;-84
2022/01/01 02:43:00;;;;;;;51.72;21.30;;;;;;;;;;5049714;28;42723;-84
2022/01/01 02:45:28;;;;;;;61.22;21.45;;;;;;;;;;5050204;28;44937;-84
2022/01/01 02:47:56;;;;;;;64.38;21.10;;;;;;;;;;5049687;28;44881;-85
2022/01/01 02:50:22;;;;;;;65.70;20.30;;;;;;;;;;5049579;28;43573;-84
2022/01/01 02:52:49;;;;;;;49.45;17.77;;;;;;;;;;5049498;28;44889;-85
2022/01/01 02:55:15;;;;;;;55.42;19.42;;;;;;;;;;5050474;28;44799;-84
2022/01/01 02:57:42;;;;;;;50.95;19.58;;;;;;;;;;5049360;28;45040;-84
2022/01/01 03:00:09;;;;;;;55.33;20.35;;;;;;;;;;5056485;28;45043;-85
2022/01/01 03:02:36;;;;;;;54.45;18.75;;;;;;;;;;5059738;28;42615;-86
2022/01/01 03:05:03;;;;;;;53.42;18.70;;;;;;;;;;5049965;28;43940;-84
2022/01/01 03:07:30;;;;;;;49.05;18.20;;;;;;;;;;5049529;28;43895;-85
2022/01/01 03:09:56;;;;;;;53.30;16.75;;;;;;;;;;5050104;28;42677;-85
2022/01/01 03:12:23;;;;;;;51.40;17.38;;;;;;;;;;5049431;28;42973;-84
2022/01/01 03:14:50;;;;;;;54.17;17.85;;;;;;;;;;5049098;28;43837;-84
2022/01/01 03:17:16;;;;;;;47.92;16.75;;;;;;;;;;5049085;28;43023;-84
2022/01/01 03:19:43;;;;;;;56.28;16.48;;;;;;;;;;5049363;28;42874;-84
2022/01/01 03:22:09;;;;;;;54.47;17.45;;;;;;;;;;5048995;28;44735;-85
2022/01/01 03:24:36;;;;;;;44.28;17.45;;;;;;;;;;5049879;28;44134;-84
2022/01/01 03:27:03;;;;;;;49.25;18.35;;;;;;;;;;5048717;28;43952;-85
2022/01/01 03:29:31;;;;;;;62.88;20.42;;;;;;;;;;5049529;28;44779;-84
2022/01/01 03:31:58;;;;;;;66.03;21.05;;;;;;;;;;5049430;28;45008;-84
2022/01/01 03:34:25;;;;;;;56.97;19.90;;;;;;;;;;5049728;28;43108;-85
2022/01/01 03:36:52;;;;;;;63.00;20.83;;;;;;;;;;5049545;28;44018;-85
2022/01/01 03:39:19;;;;;;;60.00;19.08;;;;;;;;;;5048789;28;43807;-84
2022/01/01 03:41:45;;;;;;;60.95;20.92;;;;;;;;;;5048506;28;45889;-85
2022/01/01 03:44:12;;;;;;;59.30;20.83;;;;;;;;;;5049179;28;42996;-85
2022/01/01 03:46:39;;;;;;;54.13;20.90;;;;;;;;;;5048314;28;43822;-85
2022/01/01 03:49:05;;;;;;;64.57;21.17;;;;;;;;;;5049765;28;43826;-85
2022/01/01 03:51:32;;;;;;;62.40;20.95;;;;;;;;;;5049016;28;44938;-85
2022/01/01 03:53:59;;;;;;;63.42;21.58;;;;;;;;;;5049237;28;45228;-84
2022/01/01 03:56:25;;;;;;;58.45;21.35;;;;;;;;;;5048724;28;44976;-84
2022/01/01 03:58:52;;;;;;;66.28;22.45;;;;;;;;;;5049375;28;44978;-84
2022/01/01 04:01:19;;;;;;;69.27;24.93;;;;;;;;;;5048081;28;45080;-84
2022/01/01 04:03:46;;;;;;;67.68;23.77;;;;;;;;;;5048774;28;43942;-85
2022/01/01 04:06:13;;;;;;;68.40;24.50;;;;;;;;;;5049231;28;42885;-85
2022/01/01 04:08:40;;;;;;;70.78;24.15;;;;;;;;;;5048168;28;43759;-85
2022/01/01 04:11:07;;;;;;;61.05;23.98;;;;;;;;;;5048957;28;44347;-84
2022/01/01 04:13:33;;;;;;;64.28;24.55;;;;;;;;;;5049280;28;42918;-85
2022/01/01 04:16:00;;;;;;;66.07;24.65;;;;;;;;;;5048174;28;42726;-83
2022/01/01 04:18:38;;;;;;;64.55;25.17;;;;;;;;;;5049292;28;44892;-84
2022/01/01 04:21:06;;;;;;;68.68;26.33;;;;;;;;;;5049199;28;44741;-84
2022/01/01 04:23:33;;;;;;;63.35;24.63;;;;;;;;;;5048831;28;42951;-85
2022/01/01 04:26:00;;;;;;;68.32;23.55;;;;;;;;;;5048966;28;44890;-84
2022/01/01 04:28:26;;;;;;;59.75;24.30;;;;;;;;;;5050226;28;42783;-84
2022/01/01 04:30:53;;;;;;;70.35;25.17;;;;;;;;;;5051724;28;44966;-84
2022/01/01 04:33:20;;;;;;;61.30;23.90;;;;;;;;;;5052648;28;43986;-85
2022/01/01 04:35:47;;;;;;;71.35;25.50;;;;;;;;;;5051883;28;42229;-84
2022/01/01 04:38:47;;;;;;;63.25;24.67;;;;;;;;;;5052686;28;44085;-85
2022/01/01 04:41:08;;;;;;;63.05;25.40;;;;;;;;;;5049436;28;42506;-84
2022/01/01 04:43:35;;;;;;;66.15;24.90;;;;;;;;;;5051833;28;44894;-85
2022/01/01 04:46:01;;;;;;;69.72;25.98;;;;;;;;;;5051749;28;42850;-85
2022/01/01 04:48:28;;;;;;;75.13;25.98;;;;;;;;;;5052460;28;44745;-85
2022/01/01 04:50:55;;;;;;;66.95;26.30;;;;;;;;;;5051286;28;45043;-83
2022/01/01 04:53:22;;;;;;;74.07;26.38;;;;;;;;;;5051941;28;42735;-85
2022/01/01 04:55:49;;;;;;;70.63;26.17;;;;;;;;;;5053602;28;20499;-85
2022/01/01 04:58:16;;;;;;;69.43;24.25;;;;;;;;;;5051021;28;42988;-84
2022/01/01 05:00:43;;;;;;;63.47;24.95;;;;;;;;;;5052560;28;44910;-84
2022/01/01 05:03:10;;;;;;;58.27;24.70;;;;;;;;;;5051856;28;42994;-85
2022/01/01 05:05:38;;;;;;;55.00;24.83;;;;;;;;;;5051293;28;43901;-85
2022/01/01 05:08:04;;;;;;;62.13;26.02;;;;;;;;;;5052038;28;43787;-85
2022/01/01 05:10:31;;;;;;;69.35;25.60;;;;;;;;;;5051953;28;44270;-85
2022/01/01 05:12:58;;;;;;;63.22;25.60;;;;;;;;;;5050619;28;43941;-85
2022/01/01 05:15:25;;;;;;;56.70;24.80;;;;;;;;;;5052458;28;44065;-85
2022/01/01 05:17:52;;;;;;;65.47;25.27;;;;;;;;;;5049205;28;44859;-84
2022/01/01 05:20:18;;;;;;;62.80;25.42;;;;;;;;;;5053125;28;20057;-85
2022/01/01 05:22:45;;;;;;;51.92;24.92;;;;;;;;;;5051274;28;44773;-85
2022/01/01 05:25:12;;;;;;;65.95;24.20;;;;;;;;;;5051213;28;44991;-85
2022/01/01 05:27:40;;;;;;;55.75;22.90;;;;;;;;;;5051301;28;42996;-85
2022/01/01 05:30:07;;;;;;;;;;;;;;;;;;5052335;28;45043;-85
2022/01/01 05:32:33;;;;;;;50.17;20.58;;;;;;;;;;5050532;28;45058;-85
2022/01/01 05:35:00;;;;;;;47.22;22.05;;;;;;;;;;5051285;28;44673;-85
2022/01/01 05:37:27;;;;;;;60.13;21.85;;;;;;;;;;5051205;28;45145;-85
2022/01/01 05:39:53;;;;;;;57.45;21.27;;;;;;;;;;5050587;28;43725;-85
2022/01/01 05:42:21;;;;;;;47.78;20.70;;;;;;;;;;5048071;28;44754;-86
2022/01/01 05:44:48;;;;;;;52.40;20.20;;;;;;;;;;5030192;28;42889;-85
2022/01/01 05:47:15;;;;;;;43.55;19.98;;;;;;;;;;5028143;28;42790;-85
2022/01/01 05:49:41;;;;;;;51.70;19.23;;;;;;;;;;5029755;28;45261;-85
2022/01/01 05:52:08;;;;;;;47.22;19.20;;;;;;;;;;5030417;28;43167;-85
2022/01/01 05:54:35;;;;;;;49.28;18.38;;;;;;;;;;5031198;28;43832;-85
2022/01/01 05:57:02;;;;;;;41.45;18.48;;;;;;;;;;5030962;28;44939;-85
2022/01/01 05:59:29;;;;;;;46.15;18.38;;;;;;;;;;5048201;28;44106;-85
2022/01/01 06:01:55;;;;;;;45.28;17.35;;;;;;;;;;5049690;28;42792;-85
2022/01/01 06:04:22;;;;;;;38.20;17.50;;;;;;;;;;5051313;28;44938;-85
2022/01/01 06:06:50;;;;;;;41.73;16.87;;;;;;;;;;5049775;28;44777;-85
2022/01/01 06:09:16;;;;;;;41.55;16.88;;;;;;;;;;5050677;28;43905;-85
2022/01/01 06:11:43;;;;;;;47.75;16.35;;;;;;;;;;5050420;28;42943;-85
2022/01/01 06:14:10;;;;;;;51.40;16.92;;;;;;;;;;5050034;28;44754;-84
2022/01/01 06:16:36;;;;;;;49.22;17.17;;;;;;;;;;5050186;28;44680;-84
2022/01/01 06:19:03;;;;;;;41.75;16.25;;;;;;;;;;5051038;28;45000;-84
2022/01/01 06:21:30;;;;;;;42.85;15.32;;;;;;;;;;5049509;28;44709;-85
2022/01/01 06:23:57;;;;;;;48.40;15.43;;;;;;;;;;5051089;28;43955;-85
2022/01/01 06:26:24;;;;;;;39.90;16.33;;;;;;;;;;5050744;28;42891;-85
2022/01/01 06:28:50;;;;;;;34.50;15.68;;;;;;;;;;5050276;28;43529;-85
2022/01/01 06:31:17;;;;;;;35.05;15.40;;;;;;;;;;5062086;28;44887;-86
2022/01/01 06:33:44;;;;;;;34.97;14.95;;;;;;;;;;5064764;28;44677;-85
2022/01/01 06:36:12;;;;;;;42.55;16.30;;;;;;;;;;5049821;28;45018;-85
2022/01/01 06:38:40;;;;;;;36.45;14.68;;;;;;;;;;5050896;28;44147;-84
2022/01/01 06:41:06;;;;;;;40.28;15.48;;;;;;;;;;5050400;28;44818;-84
2022/01/01 06:43:33;;;;;;;53.05;17.77;;;;;;;;;;5049623;28;44936;-85
2022/01/01 06:46:00;;;;;;;36.83;15.75;;;;;;;;;;5049922;28;44198;-85
2022/01/01 06:48:26;;;;;;;48.65;16.10;;;;;;;;;;5051067;28;44941;-85
2022/01/01 06:50:54;;;;;;;44.30;16.63;;;;;;;;;;5049071;28;44890;-85
2022/01/01 06:53:20;;;;;;;33.13;15.80;;;;;;;;;;5050363;28;42692;-85
2022/01/01 06:55:47;;;;;;;41.65;16.73;;;;;;;;;;5050016;28;45951;-85
2022/01/01 06:58:14;;;;;;;43.97;16.17;;;;;;;;;;5049347;28;42338;-85
2022/01/01 07:00:41;;;;;;;35.08;15.45;;;;;;;;;;5050219;28;44729;-85
2022/01/01 07:03:07;;;;;;;43.63;16.00;;;;;;;;;;5049389;28;45303;-85
2022/01/01 07:05:34;;;;;;;39.72;16.05;;;;;;;;;;5049873;28;44043;-85
2022/01/01 07:08:01;;;;;;;35.47;16.42;;;;;;;;;;5049416;28;42514;-85
2022/01/01 07:10:28;;;;;;;39.20;15.57;;;;;;;;;;5049687;28;42978;-84
2022/01/01 07:12:54;;;;;;;34.50;15.73;;;;;;;;;;5049993;28;44749;-85
2022/01/01 07:15:21;;;;;;;39.05;15.23;;;;;;;;;;5050148;28;45025;-85
2022/01/01 07:17:48;;;;;;;33.40;14.45;;;;;;;;;;5049931;28;20050;-84
2022/01/01 07:20:15;;;;;;;39.40;14.68;;;;;;;;;;5049366;28;44868;-84
2022/01/01 07:22:42;;;;;;;29.67;12.80;;;;;;;;;;5049251;28;42607;-84
2022/01/01 07:25:09;;;;;;;30.67;12.68;;;;;;;;;;5049206;28;42918;-85
2022/01/01 07:27:37;;;;;;;30.35;12.80;;;;;;;;;;5049460;28;42725;-85
2022/01/01 07:30:04;;;;;;;26.88;11.65;;;;;;;;;;5050000;28;44863;-85
2022/01/01 07:32:31;;;;;;;35.30;12.40;;;;;;;;;;5048960;28;43956;-85
2022/01/01 07:34:58;;;;;;;30.02;11.57;;;;;;;;;;5049975;28;43936;-84
2022/01/01 07:37:24;;;;;;;26.30;10.80;;;;;;;;;;5049219;28;42971;-84
2022/01/01 07:39:51;;;;;;;23.90;9.98;;;;;;;;;;5048947;28;43716;-85
2022/01/01 07:42:18;;;;;;;26.52;10.98;;;;;;;;;;5049147;28;45029;-85
2022/01/01 07:44:44;;;;;;;37.58;11.02;;;;;;;;;;5048947;28;44938;-85
2022/01/01 07:47:11;;;;;;;20.17;9.50;;;;;;;;;;5048293;28;44625;-85
2022/01/01 07:49:38;;;;;;;19.60;9.40;;;;;;;;;;5049693;28;45433;-85
2022/01/01 07:52:04;;;;;;;23.42;9.77;;;;;;;;;;5048659;28;44862;-85
2022/01/01 07:54:31;;;;;;;25.10;9.68;;;;;;;;;;5049372;28;44758;-85
2022/01/01 07:56:58;;;;;;;24.63;9.05;;;;;;;;;;5048830;28;45528;-85
2022/01/01 07:59:25;;;;;;;23.85;8.20;;;;;;;;;;5049887;28;42660;-85
2022/01/01 08:01:51;;;;;;;23.48;8.60;;;;;;;;;;5048742;28;42879;-85
2022/01/01 08:04:18;;;;;;;22.02;8.90;;;;;;;;;;5052321;28;42953;-85
2022/01/01 08:06:45;;;;;;;21.30;7.80;;;;;;;;;;5051798;28;44713;-85
2022/01/01 08:09:13;;;;;;;26.95;7.72;;;;;;;;;;5051974;28;46281;-85
2022/01/01 08:11:40;;;;;;;;;;;;;;;;;;5053411;28;42921;-85
2022/01/01 08:14:07;;;;;;;21.25;7.15;;;;;;;;;;5053496;28;42242;-84
2022/01/01 08:16:33;;;;;;;18.02;7.35;;;;;;;;;;5051986;28;42929;-84
2022/01/01 08:19:00;;;;;;;17.02;7.10;;;;;;;;;;5052960;28;42816;-85
2022/01/01 08:21:27;;;;;;;17.20;6.15;;;;;;;;;;5051746;28;45009;-85
2022/01/01 08:23:53;;;;;;;22.45;7.18;;;;;;;;;;5052692;28;42890;-85
2022/01/01 08:26:20;;;;;;;16.23;6.30;;;;;;;;;;5052131;28;42650;-85
2022/01/01 08:28:47;;;;;;;16.75;6.07;;;;;;;;;;5051920;28;41736;-85
2022/01/01 08:31:14;;;;;;;18.38;6.72;;;;;;;;;;5051954;28;42770;-86
2022/01/01 08:33:40;;;;;;;17.00;6.10;;;;;;;;;;5051961;28;43689;-85
2022/01/01 08:36:08;;;;;;;19.70;6.10;;;;;;;;;;5051985;28;45057;-85
2022/01/01 08:38:35;;;;;;;20.10;6.15;;;;;;;;;;5052387;28;44720;-85
2022/01/01 08:41:02;;;;;;;22.75;7.07;;;;;;;;;;5052285;28;44930;-85
2022/01/01 08:43:28;;;;;;;19.77;6.25;;;;;;;;;;5051573;28;44930;-85
2022/01/01 08:45:55;;;;;;;17.02;5.85;;;;;;;;;;5051856;28;44751;-84
2022/01/01 08:48:22;;;;;;;16.58;5.32;;;;;;;;;;5052519;28;43915;-85
2022/01/01 08:50:48;;;;;;;17.45;5.63;;;;;;;;;;5051906;28;43693;-85
2022/01/01 08:53:15;;;;;;;24.15;6.18;;;;;;;;;;5051645;28;44674;-84
2022/01/01 08:55:42;;;;;;;17.80;6.25;;;;;;;;;;5049381;28;45110;-85
2022/01/01 08:58:09;;;;;;;14.82;5.88;;;;;;;;;;5048489;28;45286;-84
2022/01/01 09:00:51;;;;;;;14.98;4.85;;;;;;;;;;5050377;28;45226;-83
2022/01/01 09:03:18;;;;;;;17.17;5.05;;;;;;;;;;5049682;28;44001;-84
2022/01/01 09:05:45;;;;;;;9.88;4.82;;;;;;;;;;5050654;28;42717;-85
2022/01/01 09:08:33;;;;;;;12.18;4.82;;;;;;;;;;5051888;28;44941;-84
2022/01/01 09:11:00;;;;;;;15.32;5.78;;;;;;;;;;5050721;28;44843;-84
2022/01/01 09:13:27;;;;;;;15.50;5.05;;;;;;;;;;5051698;28;42564;-85
2022/01/01 09:15:53;;;;;;;13.18;5.40;;;;;;;;;;5051828;28;44257;-85
2022/01/01 09:18:20;;;;;;;13.27;5.18;;;;;;;;;;5051569;28;44889;-85
2022/01/01 09:20:48;;;;;;;14.98;4.82;;;;;;;;;;5052240;28;43675;-84
2022/01/01 09:23:15;;;;;;;13.65;5.40;;;;;;;;;;5050946;28;43812;-85
2022/01/01 09:25:41;;;;;;;17.10;6.15;;;;;;;;;;5051226;28;43675;-84
2022/01/01 09:28:08;;;;;;;10.95;5.25;;;;;;;;;;5051273;28;42937;-85
2022/01/01 09:30:35;;;;;;;16.58;5.72;;;;;;;;;;5051717;28;44900;-85
2022/01/01 09:33:02;;;;;;;14.23;5.85;;;;;;;;;;5050439;28;44825;-85
2022/01/01 09:35:29;;;;;;;16.95;6.03;;;;;;;;;;5051993;28;44688;-85
2022/01/01 09:37:56;;;;;;;19.92;5.88;;;;;;;;;;5050941;28;42934;-86
2022/01/01 09:40:22;;;;;;;21.73;6.55;;;;;;;;;;5051231;28;44589;-86
2022/01/01 09:42:50;;;;;;;12.82;6.10;;;;;;;;;;5050881;28;42898;-88
2022/01/01 09:45:17;;;;;;;13.52;5.28;;;;;;;;;;5051986;28;20059;-85
2022/01/01 09:47:44;;;;;;;14.98;5.88;;;;;;;;;;5050139;28;45964;-85
2022/01/01 09:50:11;;;;;;;17.33;5.60;;;;;;;;;;5051250;28;43762;-84
2022/01/01 09:52:39;;;;;;;13.88;5.40;;;;;;;;;;5049806;28;43993;-84
2022/01/01 09:55:06;;;;;;;17.00;6.07;;;;;;;;;;5051515;28;42806;-85
2022/01/01 09:57:32;;;;;;;19.25;5.82;;;;;;;;;;5050737;28;45047;-85
2022/01/01 09:59:59;;;;;;;13.73;5.90;;;;;;;;;;5050367;28;43708;-85
2022/01/01 10:02:26;;;;;;;12.88;5.80;;;;;;;;;;5053214;28;44917;-85
2022/01/01 10:04:52;;;;;;;14.18;5.78;;;;;;;;;;5069167;28;36031;-86
2022/01/01 10:07:26;;;;;;;18.13;5.55;;;;;;;;;;5054719;28;42858;-84
2022/01/01 10:09:53;;;;;;;16.58;6.60;;;;;;;;;;5050544;28;43892;-85
2022/01/01 10:12:35;;;;;;;13.63;5.95;;;;;;;;;;5021003;28;42643;-84
2022/01/01 10:15:06;;;;;;;18.10;6.50;;;;;;;;;;5058073;28;44951;-84
2022/01/01 10:17:34;;;;;;;13.85;6.00;;;;;;;;;;5050020;28;42776;-85
2022/01/01 10:20:01;;;;;;;15.88;6.15;;;;;;;;;;5050016;28;43633;-84
2022/01/01 10:22:28;;;;;;;15.10;6.57;;;;;;;;;;5049145;28;45059;-84
2022/01/01 10:27:59;;;;;;;20.80;6.68;;;;;;;;;;5048571;28;42937;-85
2022/01/01 10:30:29;;;;;;;17.55;6.30;;;;;;;;;;5050350;28;43180;-84
2022/01/01 10:33:03;;;;;;;17.25;6.65;;;;;;;;;;5049174;28;43540;-84
2022/01/01 10:35:36;;;;;;;18.58;7.13;;;;;;;;;;5049556;28;42834;-85
2022/01/01 10:38:03;;;;;;;15.13;6.47;;;;;;;;;;5049489;28;20057;-84
2022/01/01 10:40:30;;;;;;;13.77;6.27;;;;;;;;;;5050149;28;43415;-87
2022/01/01 10:42:57;;;;;;;19.58;7.13;;;;;;;;;;5047901;28;44837;-88
2022/01/01 10:45:31;;;;;;;17.15;7.43;;;;;;;;;;5050039;28;44804;-92
2022/01/01 10:48:04;;;;;;;16.38;7.03;;;;;;;;;;5049244;28;44730;-86
2022/01/01 10:50:32;;;;;;;12.75;6.95;;;;;;;;;;5049367;28;43882;-86
2022/01/01 10:53:08;;;;;;;12.93;6.60;;;;;;;;;;5049479;28;45050;-85
2022/01/01 10:55:39;;;;;;;21.77;7.60;;;;;;;;;;5049148;28;44854;-86
2022/01/01 10:58:05;;;;;;;16.77;6.68;;;;;;;;;;5048376;28;44958;-85
2022/01/01 11:00:38;;;;;;;12.57;6.45;;;;;;;;;;5050139;28;44687;-86
2022/01/01 11:03:08;;;;;;;18.35;7.75;;;;;;;;;;5046720;28;45712;-86
2022/01/01 11:05:36;;;;;;;15.65;7.53;;;;;;;;;;5049745;28;44891;-85
2022/01/01 11:08:04;;;;;;;16.80;7.85;;;;;;;;;;5048559;28;42776;-85
2022/01/01 11:10:31;;;;;;;13.73;7.05;;;;;;;;;;5043099;28;43961;-96
2022/01/01 11:12:59;;;;;;;15.15;7.10;;;;;;;;;;5047940;28;43410;-85
2022/01/01 11:15:26;;;;;;;20.13;7.82;;;;;;;;;;5049117;28;43673;-85
2022/01/01 11:17:53;;;;;;;16.80;7.57;;;;;;;;;;5047643;28;42983;-85
2022/01/01 11:20:20;;;;;;;16.23;8.00;;;;;;;;;;5048529;28;42674;-85
2022/01/01 11:22:48;;;;;;;14.18;7.97;;;;;;;;;;5048208;28;44468;-86
2022/01/01 11:25:16;;;;;;;16.33;7.28;;;;;;;;;;5047924;28;45260;-85
2022/01/01 11:27:44;;;;;;;14.27;6.82;;;;;;;;;;5047532;28;44780;-85
2022/01/01 11:30:11;;;;;;;15.07;7.53;;;;;;;;;;5048089;28;43125;-86
2022/01/01 11:32:51;;;;;;;16.67;7.45;;;;;;;;;;5047883;28;43113;-85
2022/01/01 11:35:21;;;;;;;15.63;7.13;;;;;;;;;;5046489;28;44199;-85
2022/01/01 11:38:00;;;;;;;15.73;7.18;;;;;;;;;;5045619;28;42841;-85
2022/01/01 11:40:28;;;;;;;14.05;7.88;;;;;;;;;;5047022;28;42676;-85
2022/01/01 11:42:54;;;;;;;14.52;8.10;;;;;;;;;;5047559;28;43073;-85
2022/01/01 11:45:47;;;;;;;16.42;7.65;;;;;;;;;;5047544;28;42973;-85
2022/01/01 11:48:30;;;;;;;15.05;7.22;;;;;;;;;;5046040;28;44663;-85
2022/01/01 11:51:17;;;;;;;15.02;7.07;;;;;;;;;;5046722;28;44336;-85
2022/01/01 11:54:02;;;;;;;18.77;7.97;;;;;;;;;;5046793;28;42347;-86
2022/01/01 11:56:49;;;;;;;13.13;7.65;;;;;;;;;;5047368;28;45633;-86
2022/01/01 11:59:21;;;;;;;11.77;7.65;;;;;;;;;;5046720;28;45230;-85
2022/01/01 12:01:48;;;;;;;13.20;6.95;;;;;;;;;;5047561;28;43634;-86
2022/01/01 12:04:31;;;;;;;14.57;7.30;;;;;;;;;;5047754;28;43142;-86
2022/01/01 12:07:11;;;;;;;18.23;7.80;;;;;;;;;;5044699;28;44950;-86
2022/01/01 12:09:56;;;;;;;14.10;8.25;;;;;;;;;;5046954;28;43709;-85
2022/01/01 12:12:41;;;;;;;13.57;7.60;;;;;;;;;;5047195;28;43873;-85
2022/01/01 12:15:09;;;;;;;13.85;7.75;;;;;;;;;;5046485;28;43617;-85
2022/01/01 12:17:42;;;;;;;13.98;6.82;;;;;;;;;;5047582;28;42663;-85
2022/01/01 12:20:10;;;;;;;10.75;6.55;;;;;;;;;;5045727;28;42849;-86
2022/01/01 12:22:37;;;;;;;15.10;7.20;;;;;;;;;;5046112;28;44612;-85
2022/01/01 12:25:06;;;;;;;17.55;7.93;;;;;;;;;;5045503;28;43103;-86
2022/01/01 12:27:40;;;;;;;18.58;10.27;;;;;;;;;;5045794;28;44923;-85
2022/01/01 12:30:07;;;;;;;20.60;8.85;;;;;;;;;;5046908;28;43721;-85
2022/01/01 12:32:37;;;;;;;21.00;7.32;;;;;;;;;;5046432;28;45023;-86
2022/01/01 12:35:08;;;;;;;13.55;7.22;;;;;;;;;;5044813;28;45025;-85
2022/01/01 12:37:36;;;;;;;13.70;7.00;;;;;;;;;;5044094;28;43524;-85
2022/01/01 12:40:04;;;;;;;14.80;7.47;;;;;;;;;;5046267;28;42943;-86
2022/01/01 12:42:33;;;;;;;13.73;6.65;;;;;;;;;;5046315;28;44724;-85
2022/01/01 12:44:59;;;;;;;;;;;;;;;;;;5045031;28;44910;-85
2022/01/01 12:47:26;;;;;;;19.45;9.80;;;;;;;;;;5046866;28;45274;-88
2022/01/01 12:49:54;;;;;;;18.00;10.07;;;;;;;;;;5048749;28;41282;-85
2022/01/01 12:52:22;;;;;;;20.05;12.68;;;;;;;;;;5050186;28;44984;-85
2022/01/01 12:54:49;;;;;;;17.45;8.63;;;;;;;;;;5049788;28;42888;-86
2022/01/01 12:57:18;;;;;;;17.80;8.67;;;;;;;;;;5049409;28;43669;-85
2022/01/01 12:59:47;;;;;;;16.60;6.78;;;;;;;;;;5028474;28;517118;-84
2022/01/01 13:02:15;;;;;;;11.50;6.00;;;;;;;;;;5053166;28;95059;-85
2022/01/01 13:04:42;;;;;;;13.70;6.45;;;;;;;;;;5058250;28;41674;-86
2022/01/01 13:07:08;;;;;;;12.43;5.63;;;;;;;;;;5058845;28;44124;-85
2022/01/01 13:09:35;;;;;;;10.10;5.72;;;;;;;;;;5057945;28;44103;-85
2022/01/01 13:12:04;;;;;;;9.48;6.10;;;;;;;;;;5058373;28;42943;-85
2022/01/01 13:14:30;;;;;;;;;;;;;;;;;;5060416;28;44958;-85
2022/01/01 13:16:58;;;;;;;15.40;6.13;;;;;;;;;;5058368;28;44802;-85
2022/01/01 13:19:25;;;;;;;9.32;4.85;;;;;;;;;;5057432;28;43926;-84
2022/01/01 13:21:52;;;;;;;;;;;;;;;;;;5060221;28;44062;-89
2022/01/01 13:24:23;;;;;;;13.32;5.30;;;;;;;;;;5060388;28;19932;-85
2022/01/01 13:26:50;;;;;;;12.32;4.90;;;;;;;;;;5058961;28;44567;-85
2022/01/01 13:29:17;;;;;;;8.25;4.25;;;;;;;;;;5059085;28;43674;-85
2022/01/01 13:31:43;;;;;;;10.10;4.80;;;;;;;;;;5065813;28;44864;-86
2022/01/01 13:34:11;;;;;;;6.90;4.78;;;;;;;;;;5074395;28;43020;-87
2022/01/01 13:36:42;;;;;;;8.77;5.60;;;;;;;;;;5060378;28;43277;-85
2022/01/01 13:39:35;;;;;;;7.28;4.72;;;;;;;;;;5059324;28;43655;-85
2022/01/01 13:42:02;;;;;;;13.10;5.20;;;;;;;;;;5055961;28;43971;-85
2022/01/01 13:44:30;;;;;;;9.88;4.55;;;;;;;;;;5057776;28;43892;-86
2022/01/01 13:47:08;;;;;;;8.93;4.53;;;;;;;;;;5058370;28;42997;-86
2022/01/01 13:49:41;;;;;;;9.48;4.60;;;;;;;;;;5051322;28;42594;-86
2022/01/01 13:52:09;;;;;;;9.75;4.93;;;;;;;;;;5056585;28;42375;-85
